Time;durP1;ratioP1;P1;durP2;ratioP2;P2;SDS_P1;SDS_P2;PMS_P1;PMS_P2;Temp;Humidity;BMP_temperature;BMP_pressure;BME280_temperature;BME280_humidity;BME280_pressure;Samples;Min_cycle;Max_cycle;Signal;HPM_P1;HPM_P2
2021/10/21 00:01:48;;;;;;;8.50;5.60;;;;;;;;;;5016538;28;20452;-85
2021/10/21 00:04:17;;;;;;;6.17;5.57;;;;;;;;;;5012205;28;20448;-84
2021/10/21 00:06:44;;;;;;;7.60;6.67;;;;;;;;;;5011959;28;20535;-87
2021/10/21 00:09:11;;;;;;;9.23;6.83;;;;;;;;;;5019184;28;20467;-95
2021/10/21 00:11:40;;;;;;;7.03;5.63;;;;;;;;;;5018728;28;20460;-86
2021/10/21 00:14:08;;;;;;;8.63;7.17;;;;;;;;;;5019207;28;20452;-89
2021/10/21 00:16:38;;;;;;;9.60;7.03;;;;;;;;;;5018071;28;20448;-88
2021/10/21 00:19:05;;;;;;;9.30;6.90;;;;;;;;;;5019356;28;20461;-87
2021/10/21 00:21:33;;;;;;;7.97;6.90;;;14.00;99.90;;;;;;5019218;28;21007;-93
2021/10/21 00:24:05;;;;;;;8.37;6.00;;;14.00;99.90;;;;;;5017401;28;20777;-88
2021/10/21 00:26:35;;;;;;;7.70;6.30;;;14.00;99.90;;;;;;5016930;28;20499;-93
2021/10/21 00:29:05;;;;;;;7.40;6.03;;;;;;;;;;5017383;28;20812;-92
2021/10/21 00:31:32;;;;;;;7.40;6.70;;;;;;;;;;5017095;28;20463;-95
2021/10/21 00:34:00;;;;;;;7.60;6.80;;;;;;;;;;5016623;28;20484;-85
2021/10/21 00:36:29;;;;;;;9.60;6.60;;;;;;;;;;5016909;28;20452;-87
2021/10/21 00:38:57;;;;;;;6.10;5.50;;;;;;;;;;5015986;28;20464;-92
2021/10/21 00:41:24;;;;;;;7.27;6.07;;;;;;;;;;5016778;28;20448;-86
2021/10/21 00:43:52;;;;;;;8.40;7.50;;;;;;;;;;5016567;28;20460;-90
2021/10/21 00:46:21;;;;;;;7.00;6.30;;;13.90;99.90;;;;;;5016461;28;20602;-94
2021/10/21 00:48:48;;;;;;;6.90;6.00;;;;;;;;;;5016546;28;20448;-86
2021/10/21 00:51:16;;;;;;;10.53;6.80;;;;;;;;;;5016859;28;20452;-95
2021/10/21 00:53:45;;;;;;;9.30;5.83;;;13.80;99.90;;;;;;5015624;28;20452;-93
2021/10/21 00:56:18;;;;;;;6.77;6.17;;;13.80;99.90;;;;;;5016995;28;20440;-86
2021/10/21 00:58:50;;;;;;;6.60;5.20;;;;;;;;;;5016653;28;20480;-86
2021/10/21 01:01:17;;;;;;;5.73;4.23;;;;;;;;;;5016420;28;20456;-88
2021/10/21 01:03:44;;;;;;;8.77;5.43;;;;;;;;;;5016228;28;20487;-88
2021/10/21 01:06:12;;;;;;;6.20;5.33;;;13.90;99.90;;;;;;5016303;28;20495;-85
2021/10/21 01:08:40;;;;;;;6.93;5.67;;;;;;;;;;5015418;28;20459;-84
2021/10/21 01:11:07;;;;;;;7.97;6.43;;;14.00;99.90;;;;;;5016545;28;20457;-86
2021/10/21 01:13:39;;;;;;;9.10;5.20;;;13.90;99.90;;;;;;5016468;28;20452;-90
2021/10/21 01:16:10;;;;;;;7.10;6.03;;;13.90;99.90;;;;;;5016104;28;20459;-94
2021/10/21 01:18:38;;;;;;;6.63;5.67;;;;;;;;;;5007831;28;20460;-85
2021/10/21 01:21:07;;;;;;;6.37;5.67;;;13.90;99.90;;;;;;4998550;28;20824;-85
2021/10/21 01:23:36;;;;;;;6.37;4.93;;;13.90;99.90;;;;;;4994702;28;20472;-89
2021/10/21 01:26:03;;;;;;;7.60;5.80;;;;;;;;;;4995986;28;20481;-88
2021/10/21 01:28:30;;;;;;;7.87;6.40;;;;;;;;;;4996819;28;20453;-87
2021/10/21 01:30:57;;;;;;;6.30;5.70;;;;;;;;;;4996697;28;20457;-86
2021/10/21 01:33:25;;;;;;;7.07;5.90;;;;;;;;;;4995794;28;21003;-86
2021/10/21 01:35:52;;;;;;;8.10;6.27;;;;;;;;;;4996647;28;20468;-86
2021/10/21 01:38:20;;;;;;;9.27;5.70;;;;;;;;;;4995587;28;20449;-86
2021/10/21 01:40:48;;;;;;;7.43;5.40;;;;;;;;;;4996214;28;20460;-86
2021/10/21 01:43:15;;;;;;;6.80;5.37;;;;;;;;;;4995402;28;20457;-86
2021/10/21 01:45:42;;;;;;;6.80;5.40;;;;;;;;;;4994537;28;20508;-86
2021/10/21 01:48:10;;;;;;;5.93;5.20;;;;;;;;;;4995900;28;20457;-86
2021/10/21 01:50:37;;;;;;;5.03;4.53;;;;;;;;;;4995883;28;20804;-87
2021/10/21 01:53:04;;;;;;;6.13;4.97;;;;;;;;;;4995878;28;20453;-94
2021/10/21 01:55:33;;;;;;;6.73;4.53;;;13.80;99.90;;;;;;4994364;28;20450;-87
2021/10/21 01:58:00;;;;;;;3.20;2.57;;;;;;;;;;4996001;28;20445;-88
2021/10/21 02:00:27;;;;;;;3.50;3.20;;;;;;;;;;4994983;28;20445;-87
2021/10/21 02:02:55;;;;;;;4.27;3.87;;;;;;;;;;4995145;28;20449;-87
2021/10/21 02:05:22;;;;;;;4.87;4.37;;;;;;;;;;4994767;28;20453;-86
2021/10/21 02:07:49;;;;;;;2.03;1.83;;;;;;;;;;4995538;28;20456;-88
2021/10/21 02:10:18;;;;;;;3.70;2.83;;;14.10;99.90;;;;;;4993747;28;20457;-86
2021/10/21 02:12:47;;;;;;;5.73;4.03;;;14.10;99.90;;;;;;4995157;28;20464;-86
2021/10/21 02:15:14;;;;;;;4.23;3.37;;;;;;;;;;4994946;28;20460;-87
2021/10/21 02:17:41;;;;;;;7.47;3.40;;;;;;;;;;4994894;28;20944;-87
2021/10/21 02:20:10;;;;;;;2.67;2.47;;;14.10;99.90;;;;;;4995371;28;20449;-87
2021/10/21 02:22:38;;;;;;;3.10;2.63;;;;;;;;;;4995024;28;20622;-87
2021/10/21 02:25:06;;;;;;;2.83;2.40;;;14.00;99.90;;;;;;4993686;28;20456;-86
2021/10/21 02:27:33;;;;;;;3.40;1.97;;;;;;;;;;4995209;28;20489;-86
2021/10/21 02:30:02;;;;;;;2.43;2.20;;;13.90;99.90;;;;;;4994857;28;20824;-90
2021/10/21 02:32:29;;;;;;;3.40;2.80;;;;;;;;;;4995636;28;20491;-87
2021/10/21 02:34:57;;;;;;;1.60;1.50;;;;;;;;;;4996041;28;20532;-88
2021/10/21 02:37:24;;;;;;;2.40;2.20;;;;;;;;;;4995197;28;20543;-90
2021/10/21 02:39:51;;;;;;;1.70;1.17;;;;;;;;;;4994133;28;20450;-91
2021/10/21 02:42:18;;;;;;;2.63;2.43;;;;;;;;;;4995372;28;20446;-86
2021/10/21 02:44:45;;;;;;;2.37;2.03;;;;;;;;;;4994868;28;20456;-88
2021/10/21 02:47:14;;;;;;;5.47;2.67;;;;;;;;;;4995607;28;20500;-87
2021/10/21 02:49:41;;;;;;;2.43;2.23;;;14.40;99.90;;;;;;4997312;28;20488;-87
2021/10/21 02:52:08;;;;;;;3.17;2.73;;;;;;;;;;4997915;28;20441;-88
2021/10/21 02:54:35;;;;;;;3.63;3.00;;;;;;;;;;4994775;28;20448;-89
2021/10/21 02:57:03;;;;;;;2.27;1.73;;;;;;;;;;4996412;28;20449;-87
2021/10/21 02:59:30;;;;;;;3.70;2.57;;;;;;;;;;4994207;28;20811;-86
2021/10/21 03:01:57;;;;;;;3.90;3.20;;;;;;;;;;4995149;28;20453;-86
2021/10/21 03:04:25;;;;;;;3.60;3.03;;;14.40;99.90;;;;;;4994420;28;20449;-86
2021/10/21 03:06:52;;;;;;;1.90;1.80;;;;;;;;;;4994467;28;20991;-88
2021/10/21 03:09:19;;;;;;;1.70;1.27;;;;;;;;;;4993847;28;20450;-88
2021/10/21 03:11:47;;;;;;;4.33;2.67;;;;;;;;;;4994390;28;20453;-90
2021/10/21 03:14:14;;;;;;;2.13;1.77;;;;;;;;;;4990412;28;20453;-86
2021/10/21 03:16:41;;;;;;;2.83;2.33;;;;;;;;;;4993809;28;20450;-88
2021/10/21 03:19:08;;;;;;;2.10;1.80;;;;;;;;;;4993672;28;20461;-86
2021/10/21 03:21:36;;;;;;;2.40;2.20;;;14.30;99.90;;;;;;4994061;28;20457;-86
2021/10/21 03:24:03;;;;;;;2.53;1.97;;;;;;;;;;4992961;28;20460;-86
2021/10/21 03:26:31;;;;;;;1.33;1.23;;;;;;;;;;4993943;28;20496;-91
2021/10/21 03:28:58;;;;;;;1.60;1.50;;;;;;;;;;4994073;28;20778;-86
2021/10/21 03:31:29;;;;;;;2.03;1.03;;;;;;;;;;4993812;28;20825;-87
2021/10/21 03:33:56;;;;;;;1.50;1.30;;;;;;;;;;4993567;28;20489;-85
2021/10/21 03:36:23;;;;;;;0.90;0.90;;;;;;;;;;4994344;28;20457;-93
2021/10/21 03:38:51;;;;;;;1.23;1.07;;;14.30;99.90;;;;;;4993861;28;20449;-90
2021/10/21 03:41:19;;;;;;;2.23;1.30;;;;;;;;;;4993923;28;21001;-94
2021/10/21 03:43:46;;;;;;;0.97;0.60;;;;;;;;;;4995275;28;20467;-93
2021/10/21 03:46:13;;;;;;;1.70;0.87;;;;;;;;;;4994789;28;20492;-91
2021/10/21 03:48:40;;;;;;;1.60;1.03;;;;;;;;;;4992045;28;20520;-93
2021/10/21 03:51:08;;;;;;;2.50;1.07;;;;;;;;;;4995027;28;20462;-91
2021/10/21 03:53:35;;;;;;;1.00;0.87;;;;;;;;;;4993711;28;20441;-92
2021/10/21 03:56:03;;;;;;;1.17;0.80;;;;;;;;;;4994913;28;20453;-90
2021/10/21 03:58:30;;;;;;;1.20;1.03;;;;;;;;;;4994030;28;20433;-89
2021/10/21 04:00:58;;;;;;;0.83;0.70;;;;;;;;;;4994496;28;20472;-90
2021/10/21 04:03:25;;;;;;;0.90;0.60;;;;;;;;;;4994631;28;20453;-90
2021/10/21 04:05:52;;;;;;;1.47;0.93;;;;;;;;;;4994146;28;20468;-90
2021/10/21 04:08:19;;;;;;;1.00;0.80;;;;;;;;;;4992993;28;21027;-89
2021/10/21 04:10:46;;;;;;;1.43;0.60;;;;;;;;;;4994779;28;20454;-90
2021/10/21 04:13:14;;;;;;;0.93;0.70;;;;;;;;;;4994839;28;20796;-88
2021/10/21 04:15:42;;;;;;;1.00;0.73;;;;;;;;;;4994098;28;20934;-89
2021/10/21 04:18:09;;;;;;;0.73;0.60;;;;;;;;;;4994536;28;20455;-87
2021/10/21 04:20:36;;;;;;;0.60;0.50;;;;;;;;;;5001204;28;20453;-86
2021/10/21 04:23:03;;;;;;;2.70;0.57;;;;;;;;;;4995507;28;20457;-88
2021/10/21 04:25:30;;;;;;;2.43;0.70;;;;;;;;;;4993883;28;20465;-87
2021/10/21 04:27:58;;;;;;;2.30;0.70;;;;;;;;;;4994396;28;20492;-92
2021/10/21 04:30:26;;;;;;;0.90;0.40;;;;;;;;;;4993635;28;20463;-89
2021/10/21 04:32:54;;;;;;;2.33;0.80;;;;;;;;;;4996671;28;20527;-92
2021/10/21 04:35:21;;;;;;;0.70;0.50;;;;;;;;;;4994643;28;20449;-90
2021/10/21 04:37:48;;;;;;;0.50;0.40;;;;;;;;;;4994072;28;20800;-87
2021/10/21 04:40:15;;;;;;;1.10;0.53;;;;;;;;;;4993908;28;20458;-86
2021/10/21 04:42:42;;;;;;;0.50;0.30;;;;;;;;;;4991420;28;20460;-88
2021/10/21 04:45:09;;;;;;;1.00;0.60;;;;;;;;;;4994010;28;20499;-89
2021/10/21 04:47:38;;;;;;;2.20;0.93;;;;;;;;;;4994755;28;20502;-87
2021/10/21 04:50:05;;;;;;;0.70;0.40;;;13.40;99.90;;;;;;4995546;28;20457;-89
2021/10/21 04:52:33;;;;;;;0.73;0.50;;;;;;;;;;4994165;28;20460;-89
2021/10/21 04:55:00;;;;;;;1.13;0.40;;;;;;;;;;4996083;28;20484;-88
2021/10/21 04:57:27;;;;;;;0.70;0.60;;;;;;;;;;4997750;28;20456;-89
2021/10/21 04:59:54;;;;;;;0.50;0.30;;;;;;;;;;4997169;28;20444;-88
2021/10/21 05:02:21;;;;;;;2.00;0.70;;;;;;;;;;4997145;28;20448;-89
2021/10/21 05:04:50;;;;;;;1.73;0.30;;;;;;;;;;4996779;28;20449;-89
2021/10/21 05:07:17;;;;;;;3.90;0.60;;;;;;;;;;4997485;28;20500;-88
2021/10/21 05:09:44;;;;;;;2.70;0.47;;;;;;;;;;4996120;28;20453;-87
2021/10/21 05:12:11;;;;;;;1.83;0.53;;;;;;;;;;4996710;28;20455;-87
2021/10/21 05:14:38;;;;;;;3.13;1.13;;;;;;;;;;4996695;28;20449;-89
2021/10/21 05:17:05;;;;;;;2.53;0.37;;;;;;;;;;4994751;28;20902;-88
2021/10/21 05:19:32;;;;;;;1.07;0.30;;;;;;;;;;4996407;28;20441;-88
2021/10/21 05:22:00;;;;;;;1.30;0.37;;;13.00;99.90;;;;;;4996821;28;20449;-91
2021/10/21 05:24:28;;;;;;;1.33;0.40;;;;;;;;;;4995657;28;20472;-90
2021/10/21 05:26:55;;;;;;;1.90;0.60;;;;;;;;;;4996706;28;20850;-87
2021/10/21 05:29:22;;;;;;;0.47;0.30;;;;;;;;;;4996576;28;20448;-89
2021/10/21 05:31:50;;;;;;;1.43;1.07;;;;;;;;;;4998256;28;20937;-90
2021/10/21 05:34:17;;;;;;;2.70;0.50;;;;;;;;;;4997245;28;20457;-88
2021/10/21 05:36:44;;;;;;;3.40;0.70;;;;;;;;;;4996379;28;20456;-89
2021/10/21 05:39:12;;;;;;;6.47;1.10;;;;;;;;;;4997053;28;20453;-91
2021/10/21 05:41:40;;;;;;;1.50;0.50;;;;;;;;;;4995878;28;20480;-93
2021/10/21 05:44:07;;;;;;;3.63;0.60;;;;;;;;;;4997913;28;20445;-88
2021/10/21 05:46:34;;;;;;;1.37;0.83;;;;;;;;;;4996684;28;20453;-92
2021/10/21 05:49:01;;;;;;;1.33;0.67;;;;;;;;;;4998385;28;20474;-86
2021/10/21 05:51:28;;;;;;;0.50;0.40;;;;;;;;;;5007875;28;20464;-89
2021/10/21 05:53:56;;;;;;;1.07;0.43;;;;;;;;;;4998349;28;20953;-89
2021/10/21 05:56:24;;;;;;;2.30;0.70;;;;;;;;;;4996549;28;20456;-91
2021/10/21 05:58:51;;;;;;;3.93;1.00;;;;;;;;;;4996245;28;20457;-90
2021/10/21 06:01:19;;;;;;;2.43;0.47;;;;;;;;;;4995850;28;20444;-90
2021/10/21 06:03:46;;;;;;;3.37;0.97;;;;;;;;;;4993002;28;20453;-88
2021/10/21 06:06:13;;;;;;;5.10;0.90;;;;;;;;;;5011992;28;20511;-90
2021/10/21 06:08:41;;;;;;;0.73;0.30;;;;;;;;;;5014356;28;20488;-90
2021/10/21 06:11:08;;;;;;;3.70;0.60;;;;;;;;;;5015386;28;20437;-91
2021/10/21 06:13:37;;;;;;;0.93;0.30;;;;;;;;;;5015964;28;20769;-91
2021/10/21 06:16:04;;;;;;;2.77;0.67;;;;;;;;;;5016055;28;20463;-92
2021/10/21 06:18:31;;;;;;;2.07;1.77;;;;;;;;;;5015377;28;20451;-88
2021/10/21 06:21:00;;;;;;;6.50;1.13;;;;;;;;;;5014702;28;20465;-86
2021/10/21 06:23:27;;;;;;;2.00;0.73;;;;;;;;;;5014919;28;20461;-90
2021/10/21 06:25:55;;;;;;;3.97;1.27;;;;;;;;;;5016824;28;20882;-90
2021/10/21 06:28:22;;;;;;;2.60;0.70;;;;;;;;;;5016899;28;20492;-91
2021/10/21 06:30:51;;;;;;;5.33;0.67;;;;;;;;;;5018152;28;20547;-94
2021/10/21 06:33:18;;;;;;;6.33;1.03;;;12.40;99.90;;;;;;5018030;28;20484;-89
2021/10/21 06:35:46;;;;;;;4.07;0.93;;;;;;;;;;5017491;28;20452;-92
2021/10/21 06:38:13;;;;;;;2.10;0.60;;;;;;;;;;5014025;28;20447;-90
2021/10/21 06:40:40;;;;;;;2.77;0.77;;;;;;;;;;5014732;28;20452;-90
2021/10/21 06:43:07;;;;;;;8.53;0.90;;;;;;;;;;5016936;28;20443;-94
2021/10/21 06:45:35;;;;;;;3.17;0.83;;;;;;;;;;5015382;28;20448;-91
2021/10/21 06:48:03;;;;;;;1.00;0.30;;;12.60;99.90;;;;;;5018466;28;20508;-91
2021/10/21 06:50:31;;;;;;;1.57;0.40;;;;;;;;;;5016753;28;20456;-90
2021/10/21 06:52:58;;;;;;;1.73;0.53;;;;;;;;;;5015537;28;20522;-93
2021/10/21 06:55:25;;;;;;;2.20;0.50;;;;;;;;;;5016941;28;20452;-91
2021/10/21 06:57:56;;;;;;;5.50;0.40;;;12.60;99.90;;;;;;5017961;28;20468;-91
2021/10/21 07:00:24;;;;;;;3.17;0.70;;;;;;;;;;5017813;28;20448;-88
2021/10/21 07:02:51;;;;;;;8.13;1.57;;;;;;;;;;5016183;28;20448;-89
2021/10/21 07:05:22;;;;;;;1.77;0.57;;;;;;;;;;5015890;28;20456;-90
2021/10/21 07:07:49;;;;;;;3.03;0.57;;;;;;;;;;5021620;28;20814;-87
2021/10/21 07:10:17;;;;;;;3.13;0.77;;;;;;;;;;5020126;28;20457;-87
2021/10/21 07:12:45;;;;;;;4.17;0.87;;;;;;;;;;5016338;28;20451;-93
2021/10/21 07:15:12;;;;;;;1.57;0.63;;;;;;;;;;5019313;28;20480;-92
2021/10/21 07:17:41;;;;;;;4.77;0.97;;;;;;;;;;5016437;28;20455;-89
2021/10/21 07:20:09;;;;;;;3.03;0.67;;;13.40;99.90;;;;;;5022378;28;20439;-88
2021/10/21 07:22:38;;;;;;;3.70;0.60;;;13.30;99.90;;;;;;5023519;28;20445;-95
2021/10/21 07:25:06;;;;;;;1.70;0.50;;;;;;;;;;5017939;28;20444;-89
2021/10/21 07:27:33;;;;;;;4.17;0.87;;;;;;;;;;5015038;28;21069;-89
2021/10/21 07:30:00;;;;;;;1.10;0.40;;;;;;;;;;5015542;28;20449;-88
2021/10/21 07:32:27;;;;;;;5.00;0.80;;;;;;;;;;5015054;28;20472;-92
2021/10/21 07:34:54;;;;;;;3.80;0.70;;;;;;;;;;5014424;28;20460;-87
2021/10/21 07:37:22;;;;;;;2.40;0.50;;;;;;;;;;5014289;28;20444;-91
2021/10/21 07:39:50;;;;;;;3.03;0.80;;;13.40;99.90;;;;;;5014293;28;20498;-90
2021/10/21 07:42:17;;;;;;;2.93;1.00;;;;;;;;;;5014679;28;20449;-91
2021/10/21 07:44:45;;;;;;;3.47;0.63;;;13.30;99.90;;;;;;5014196;28;20449;-89
2021/10/21 07:47:12;;;;;;;2.80;1.17;;;;;;;;;;5013700;28;20472;-90
2021/10/21 07:49:40;;;;;;;2.13;0.60;;;;;;;;;;5014402;28;20462;-88
2021/10/21 07:52:07;;;;;;;0.53;0.40;;;;;;;;;;5014359;28;20451;-90
2021/10/21 07:54:34;;;;;;;1.87;0.30;;;;;;;;;;5012599;28;20471;-89
2021/10/21 07:57:05;;;;;;;1.00;0.57;;;13.60;99.90;;;;;;5015124;28;20970;-88
2021/10/21 07:59:34;;;;;;;0.40;0.30;;;14.10;99.90;;;;;;5012074;28;20472;-93
2021/10/21 08:02:01;;;;;;;2.33;0.57;;;;;;;;;;5013648;28;20499;-91
2021/10/21 08:04:30;;;;;;;2.37;0.80;;;14.20;99.90;;;;;;5013080;28;20792;-89
2021/10/21 08:06:57;;;;;;;1.00;0.50;;;;;;;;;;5013572;28;20458;-88
2021/10/21 08:09:25;;;;;;;7.07;2.83;;;;;;;;;;5012820;28;20499;-89
2021/10/21 08:11:53;;;;;;;1.87;0.50;;;;;;;;;;5014529;28;20513;-90
2021/10/21 08:14:21;;;;;;;1.00;0.73;;;13.40;99.90;;;;;;5014484;28;21042;-92
2021/10/21 08:16:49;;;;;;;2.10;0.40;;;;;;;;;;5014942;28;20453;-93
2021/10/21 08:19:16;;;;;;;2.50;0.70;;;13.40;99.90;;;;;;5035543;28;20447;-89
2021/10/21 08:21:46;;;;;;;2.30;0.40;;;;;;;;;;5037904;28;20463;-90
2021/10/21 08:24:13;;;;;;;0.80;0.30;;;;;;;;;;5036583;28;20456;-92
2021/10/21 08:26:41;;;;;;;0.90;0.50;;;;;;;;;;5035881;28;20455;-87
2021/10/21 08:29:08;;;;;;;1.03;0.30;;;;;;;;;;5028035;28;20488;-91
2021/10/21 08:34:19;;;;;;;0.80;0.30;;;13.70;99.90;;;;;;5096559;27;20964;-88
2021/10/21 08:36:47;;;;;;;1.60;0.50;;;;;;;;;;5091887;28;20449;-90
2021/10/21 08:39:14;;;;;;;0.50;0.20;;;;;;;;;;5088717;28;20469;-91
2021/10/21 08:41:42;;;;;;;1.97;1.03;;;;;;;;;;5101939;28;20444;-89
2021/10/21 08:44:10;;;;;;;2.03;0.40;;;;;;;;;;5115095;28;20455;-91
2021/10/21 08:46:38;;;;;;;2.30;0.47;;;13.30;99.90;;;;;;5118590;28;20487;-90
2021/10/21 08:49:06;;;;;;;0.77;0.33;;;13.10;99.90;;;;;;5086039;28;20448;-92
2021/10/21 08:51:36;;;;;;;5.40;0.70;;;13.20;99.90;;;;;;5110198;28;20463;-87
2021/10/21 08:54:10;;;;;;;1.90;0.70;;;13.20;99.90;;;;;;5105254;28;20480;-92
2021/10/21 08:56:46;;;;;;;0.90;0.40;;;12.90;99.90;;;;;;5072485;28;20455;-88
2021/10/21 08:59:13;;;;;;;2.77;0.40;;;;;;;;;;5091195;28;20451;-93
2021/10/21 09:01:41;;;;;;;0.60;0.33;;;;;;;;;;5092940;28;20459;-91
2021/10/21 09:09:53;;;;;;;0.73;0.30;;;;;;;;;;5098642;28;20428;-87
2021/10/21 09:12:20;;;;;;;1.83;0.57;;;;;;;;;;5101874;28;20465;-91
2021/10/21 09:14:49;;;;;;;0.40;0.20;;;;;;;;;;5095330;28;20914;-93
2021/10/21 09:17:17;;;;;;;2.37;0.63;;;13.50;99.90;;;;;;5079580;28;20460;-85
2021/10/21 09:19:45;;;;;;;0.77;0.30;;;;;;;;;;5080840;28;20802;-90
2021/10/21 09:22:23;;;;;;;0.83;0.37;;;14.10;99.90;;;;;;5078076;28;20517;-89
2021/10/21 09:24:51;;;;;;;0.87;0.40;;;14.30;99.90;;;;;;5073989;28;20544;-87
2021/10/21 09:27:19;;;;;;;0.70;0.30;;;14.60;99.90;;;;;;5074415;28;20529;-88
2021/10/21 09:29:48;;;;;;;1.00;0.40;;;14.20;99.90;;;;;;5076039;28;20976;-90
2021/10/21 09:32:17;;;;;;;1.43;0.40;;;14.00;99.90;;;;;;5066261;28;21095;-89
2021/10/21 09:34:46;;;;;;;0.43;0.30;;;13.90;99.90;;;;;;5071343;28;20778;-87
2021/10/21 09:37:13;;;;;;;0.80;0.37;;;14.30;99.90;;;;;;5072351;28;20434;-88
2021/10/21 09:39:46;;;;;;;0.40;0.20;;;13.70;99.90;;;;;;5068228;28;20838;-88
2021/10/21 09:42:14;;;;;;;1.10;0.77;;;;;;;;;;5071791;28;20457;-91
2021/10/21 09:44:41;;;;;;;1.90;0.50;;;;;;;;;;5052029;28;20441;-92
2021/10/21 09:47:22;;;;;;;1.03;0.40;;;12.70;99.90;;;;;;5016503;28;20467;-86
2021/10/21 09:49:54;;;;;;;0.97;0.30;;;12.30;99.90;;;;;;5017755;28;20449;-86
2021/10/21 09:52:23;;;;;;;1.33;0.40;;;12.10;99.90;;;;;;5015097;28;20475;-89
2021/10/21 09:54:53;;;;;;;0.60;0.20;;;12.00;99.90;;;;;;5015719;28;20480;-89
2021/10/21 09:57:20;;;;;;;0.97;0.60;;;;;;;;;;5016669;28;20457;-88
2021/10/21 10:00:03;;;;;;;1.97;0.50;;;11.70;99.90;;;;;;5017265;28;20453;-86
2021/10/21 10:02:32;;;;;;;0.40;0.20;;;11.50;99.90;;;;;;5017590;28;20458;-88
2021/10/21 10:05:04;;;;;;;3.40;0.40;;;12.00;99.90;;;;;;5034771;28;20443;-91
2021/10/21 10:07:31;;;;;;;0.60;0.30;;;;;;;;;;5036477;28;20732;-88
2021/10/21 10:10:01;;;;;;;0.50;0.20;;;12.70;99.90;;;;;;5031435;28;20452;-87
2021/10/21 10:12:31;;;;;;;0.40;0.20;;;13.20;99.90;;;;;;5037363;28;20451;-87
2021/10/21 10:14:58;;;;;;;0.80;0.30;;;;;;;;;;5036374;28;20787;-91
2021/10/21 10:17:27;;;;;;;0.57;0.30;;;;;;;;;;5035985;28;20439;-88
2021/10/21 10:19:54;;;;;;;0.70;0.40;;;13.80;99.90;;;;;;5037554;28;20454;-89
2021/10/21 10:22:25;;;;;;;0.50;0.40;;;13.90;99.90;;;;;;5044942;28;20450;-86
2021/10/21 10:24:53;;;;;;;1.03;0.37;;;14.50;99.90;;;;;;5036983;28;20550;-88
2021/10/21 10:27:24;;;;;;;1.57;0.33;;;14.60;99.90;;;;;;5041313;28;20444;-91
2021/10/21 10:29:51;;;;;;;2.50;0.40;;;15.00;99.90;;;;;;5036715;28;20444;-89
2021/10/21 10:32:40;;;;;;;0.40;0.30;;;14.60;99.90;;;;;;5041999;28;20483;-90
2021/10/21 10:35:09;;;;;;;3.17;0.40;;;15.10;99.90;;;;;;5026694;28;20514;-89
2021/10/21 10:37:56;;;;;;;1.37;0.40;;;15.40;99.90;;;;;;5030092;28;20447;-87
2021/10/21 10:40:46;;;;;;;3.20;1.90;;;15.30;99.90;;;;;;5029667;28;21183;-86
2021/10/21 10:43:16;;;;;;;0.87;0.33;;;14.20;99.90;;;;;;5015893;28;20487;-87
2021/10/21 10:45:45;;;;;;;0.87;0.60;;;14.50;99.90;;;;;;5015049;28;20475;-88
2021/10/21 10:48:14;;;;;;;0.60;0.30;;;15.60;99.90;;;;;;5015357;28;20815;-89
2021/10/21 10:50:53;;;;;;;1.37;0.50;;;15.10;99.90;;;;;;5015854;28;20464;-89
2021/10/21 10:53:50;;;;;;;2.67;0.77;;;17.10;99.90;;;;;;5024235;28;20629;-91
2021/10/21 10:56:44;;;;;;;0.83;0.40;;;15.40;98.20;;;;;;5034221;28;20832;-85
2021/10/21 10:59:19;;;;;;;0.80;0.37;;;15.30;98.60;;;;;;5032911;28;20525;-90
2021/10/21 11:01:46;;;;;;;0.40;0.33;;;;;;;;;;5034564;28;20455;-85
2021/10/21 11:04:40;;;;;;;0.60;0.40;;;15.20;99.30;;;;;;5030220;28;20457;-87
2021/10/21 11:07:07;;;;;;;0.40;0.30;;;;;;;;;;5025787;28;20824;-88
2021/10/21 11:09:34;;;;;;;0.80;0.47;;;;;;;;;;5033774;28;20442;-90
2021/10/21 11:12:04;;;;;;;2.30;0.50;;;14.80;99.30;;;;;;5017169;28;20472;-90
2021/10/21 11:14:43;;;;;;;1.73;0.70;;;17.60;99.90;;;;;;5037608;28;20497;-91
2021/10/21 11:17:12;;;;;;;0.40;0.30;;;;;;;;;;5057165;28;20545;-93
2021/10/21 11:19:47;;;;;;;0.63;0.40;;;15.30;95.70;;;;;;5059170;28;20961;-87
2021/10/21 11:22:39;;;;;;;2.40;0.50;;;15.10;97.70;;;;;;5060854;28;20454;-91
2021/10/21 11:25:16;;;;;;;1.60;0.50;;;15.60;97.00;;;;;;5054321;28;20450;-87
2021/10/21 11:27:45;;;;;;;2.00;0.70;;;15.60;97.40;;;;;;5055850;28;20446;-91
2021/10/21 11:30:17;;;;;;;0.97;0.40;;;16.00;95.70;;;;;;5053639;28;20451;-87
2021/10/21 11:32:44;;;;;;;1.37;0.50;;;;;;;;;;5053535;28;20483;-86
2021/10/21 11:35:16;;;;;;;0.93;0.40;;;15.10;95.70;;;;;;5054212;28;20732;-87
2021/10/21 11:37:47;;;;;;;2.93;0.87;;;15.00;97.40;;;;;;5054267;28;20930;-90
2021/10/21 11:40:34;;;;;;;1.87;0.50;;;14.90;95.80;;;;;;5057375;28;20462;-94
2021/10/21 11:43:05;;;;;;;1.03;0.50;;;15.20;94.80;;;;;;5054611;28;20454;-88
2021/10/21 11:45:36;;;;;;;1.03;0.43;;;15.00;96.00;;;;;;5054700;28;20443;-90
2021/10/21 11:48:04;;;;;;;0.60;0.33;;;15.50;95.80;;;;;;5059945;28;20793;-92
2021/10/21 11:50:34;;;;;;;1.23;0.80;;;15.40;96.80;;;;;;5057382;28;20451;-89
2021/10/21 11:53:02;;;;;;;2.20;0.60;;;;;;;;;;5061314;28;20453;-89
2021/10/21 11:55:29;;;;;;;1.63;0.40;;;;;;;;;;5053605;28;20864;-88
2021/10/21 11:57:57;;;;;;;1.27;0.30;;;;;;;;;;5053428;28;20501;-86
2021/10/21 12:00:26;;;;;;;2.07;0.50;;;15.60;96.60;;;;;;5053044;28;20451;-89
2021/10/21 12:02:55;;;;;;;1.40;0.53;;;15.70;96.40;;;;;;5033680;28;20523;-86
2021/10/21 12:05:27;;;;;;;0.70;0.50;;;15.90;95.20;;;;;;5033266;28;20455;-87
2021/10/21 12:07:54;;;;;;;3.87;0.50;;;;;;;;;;5033141;28;20451;-90
2021/10/21 12:10:35;;;;;;;1.00;0.63;;;15.90;94.10;;;;;;5032389;28;20444;-87
2021/10/21 12:13:03;;;;;;;1.77;0.90;;;;;;;;;;5031813;28;20443;-86
2021/10/21 12:15:33;;;;;;;0.80;0.30;;;15.40;96.00;;;;;;5035387;28;20497;-93
2021/10/21 12:18:06;;;;;;;2.33;0.70;;;15.40;95.80;;;;;;5033637;28;20443;-87
2021/10/21 12:20:41;;;;;;;1.27;0.40;;;15.60;97.60;;;;;;5034040;28;20458;-88
2021/10/21 12:23:12;;;;;;;0.73;0.40;;;15.70;93.40;;;;;;5033588;28;20450;-88
2021/10/21 12:25:40;;;;;;;0.57;0.37;;;;;;;;;;5030465;28;20447;-91
2021/10/21 12:28:07;;;;;;;3.07;0.50;;;;;;;;;;5033893;28;20458;-87
2021/10/21 12:30:36;;;;;;;2.00;0.50;;;;;;;;;;5029838;28;20546;-90
2021/10/21 12:33:09;;;;;;;1.97;0.50;;;15.40;94.50;;;;;;5032435;28;20498;-86
2021/10/21 12:35:36;;;;;;;0.93;0.60;;;;;;;;;;5032665;28;20447;-88
2021/10/21 12:38:08;;;;;;;0.97;0.50;;;15.80;93.80;;;;;;5032509;28;20955;-86
2021/10/21 12:40:38;;;;;;;2.20;0.60;;;;;;;;;;5031215;28;20970;-87
2021/10/21 12:43:13;;;;;;;1.00;0.40;;;15.70;93.80;;;;;;5032372;28;20455;-85
2021/10/21 12:45:40;;;;;;;2.20;0.60;;;;;;;;;;5032569;28;20443;-87
2021/10/21 12:48:23;;;;;;;1.90;0.73;;;16.30;96.20;;;;;;5032502;28;20443;-86
2021/10/21 12:50:52;;;;;;;0.80;0.40;;;16.10;95.40;;;;;;5032756;28;20900;-90
2021/10/21 12:53:19;;;;;;;1.10;0.40;;;;;;;;;;5032260;28;20444;-88
2021/10/21 12:55:46;;;;;;;0.60;0.30;;;;;;;;;;5033286;28;20444;-85
2021/10/21 12:58:21;;;;;;;3.20;0.63;;;15.50;97.00;;;;;;5033487;28;20958;-85
2021/10/21 13:00:49;;;;;;;0.87;0.30;;;;;;;;;;5033588;28;20439;-86
2021/10/21 13:03:18;;;;;;;1.33;0.40;;;15.40;95.80;;;;;;5033211;28;20447;-85
2021/10/21 13:05:49;;;;;;;0.80;0.40;;;14.30;96.40;;;;;;5032701;28;20455;-89
2021/10/21 13:08:18;;;;;;;0.50;0.30;;;;;;;;;;5032795;28;20459;-89
2021/10/21 13:10:52;;;;;;;0.93;0.50;;;15.40;97.30;;;;;;5032655;28;20479;-88
2021/10/21 13:13:23;;;;;;;4.57;0.60;;;;;;;;;;5032655;28;20935;-88
2021/10/21 13:15:50;;;;;;;1.87;0.47;;;;;;;;;;5033197;28;20780;-86
2021/10/21 13:18:19;;;;;;;0.80;0.60;;;;;;;;;;5026479;28;20459;-85
2021/10/21 13:20:48;;;;;;;3.40;0.93;;;15.10;98.30;;;;;;5036229;28;20502;-88
2021/10/21 13:23:16;;;;;;;0.70;0.30;;;;;;;;;;5041242;28;20991;-88
2021/10/21 13:25:44;;;;;;;1.73;0.70;;;;;;;;;;5037975;28;20466;-86
2021/10/21 13:28:11;;;;;;;2.83;0.80;;;;;;;;;;5036201;28;20565;-88
2021/10/21 13:30:38;;;;;;;0.70;0.50;;;;;;;;;;5036072;28;20447;-86
2021/10/21 13:33:05;;;;;;;0.47;0.30;;;;;;;;;;5036191;28;20511;-88
2021/10/21 13:35:33;;;;;;;0.53;0.30;;;;;;;;;;5029186;28;20495;-87
2021/10/21 13:38:03;;;;;;;2.57;0.70;;;15.10;97.80;;;;;;5020163;28;20484;-88
2021/10/21 13:40:31;;;;;;;0.83;0.30;;;;;;;;;;5016082;28;20444;-90
2021/10/21 13:42:58;;;;;;;2.97;0.57;;;;;;;;;;5016234;28;20488;-87
2021/10/21 13:45:25;;;;;;;0.60;0.37;;;;;;;;;;5014544;28;20452;-87
2021/10/21 13:47:54;;;;;;;1.00;0.70;;;;;;;;;;5016669;28;20452;-88
2021/10/21 13:50:21;;;;;;;0.87;0.40;;;;;;;;;;5016830;28;20464;-88
2021/10/21 13:52:48;;;;;;;1.00;0.40;;;;;;;;;;5018289;28;20452;-89
2021/10/21 13:55:16;;;;;;;1.40;0.40;;;14.80;96.00;;;;;;5016591;28;20856;-87
2021/10/21 13:57:44;;;;;;;1.63;0.50;;;;;;;;;;4979831;28;20516;-86
2021/10/21 14:00:14;;;;;;;1.70;0.77;;;14.90;95.90;;;;;;5016142;28;20452;-89
2021/10/21 14:02:41;;;;;;;0.50;0.30;;;;;;;;;;5016552;28;20436;-90
2021/10/21 14:05:08;;;;;;;6.90;0.60;;;;;;;;;;5016016;28;20461;-87
2021/10/21 14:07:36;;;;;;;0.50;0.40;;;;;;;;;;5016938;28;20444;-91
2021/10/21 14:10:04;;;;;;;2.33;0.70;;;;;;;;;;5015771;28;20445;-92
2021/10/21 14:12:32;;;;;;;1.93;0.40;;;;;;;;;;5016067;28;20448;-89
2021/10/21 14:15:00;;;;;;;1.93;0.33;;;;;;;;;;5016223;28;20491;-91
2021/10/21 14:17:27;;;;;;;0.60;0.30;;;;;;;;;;5016127;28;20467;-91
2021/10/21 14:19:54;;;;;;;1.17;0.67;;;;;;;;;;5015130;28;20490;-87